createdAt,value
2019-03-10T00:00:25.710Z,10.80
2019-03-10T00:02:54.299Z,10.70
2019-03-10T00:05:22.831Z,10.80
2019-03-10T00:07:51.380Z,10.80
2019-03-10T00:10:19.974Z,10.80
2019-03-10T00:12:48.443Z,10.80
2019-03-10T00:15:16.914Z,10.80
2019-03-10T00:17:45.531Z,10.80
2019-03-10T00:20:14.194Z,10.80
2019-03-10T00:22:42.824Z,10.80
2019-03-10T00:25:11.686Z,10.80
2019-03-10T00:27:40.206Z,10.80
2019-03-10T00:30:16.496Z,10.80
2019-03-10T00:32:45.260Z,10.80
2019-03-10T00:35:14.338Z,10.80
2019-03-10T00:37:42.930Z,10.80
2019-03-10T00:40:47.930Z,10.70
2019-03-10T00:43:36.171Z,10.70
2019-03-10T00:46:25.632Z,10.70
2019-03-10T00:49:09.139Z,10.70
2019-03-10T00:52:14.294Z,10.70
2019-03-10T00:54:42.779Z,10.70
2019-03-10T00:57:11.443Z,10.60
2019-03-10T00:59:40.154Z,10.70
2019-03-10T01:02:08.615Z,10.60
2019-03-10T01:04:37.164Z,10.70
2019-03-10T01:07:05.823Z,10.70
2019-03-10T01:09:34.414Z,10.70
2019-03-10T01:12:03.806Z,10.60
2019-03-10T01:14:32.870Z,10.60
2019-03-10T01:17:03.179Z,10.60
2019-03-10T01:19:33.325Z,10.70
2019-03-10T01:22:02.308Z,10.70
2019-03-10T01:24:30.907Z,10.60
2019-03-10T01:26:59.517Z,10.60
2019-03-10T01:29:28.058Z,10.70
2019-03-10T01:32:08.886Z,10.70
2019-03-10T01:34:55.646Z,10.60
2019-03-10T01:37:24.184Z,10.60
2019-03-10T01:39:52.712Z,10.60
2019-03-10T01:42:21.327Z,10.60
2019-03-10T01:44:49.928Z,10.60
2019-03-10T01:47:18.484Z,10.60
2019-03-10T01:49:47.003Z,10.60
2019-03-10T01:52:15.619Z,10.50
2019-03-10T01:54:44.148Z,10.60
2019-03-10T01:57:12.767Z,10.60
2019-03-10T01:59:41.296Z,10.50
2019-03-10T02:02:09.846Z,10.50
2019-03-10T02:04:38.379Z,10.50
2019-03-10T02:07:06.927Z,10.50
2019-03-10T02:09:35.454Z,10.50
2019-03-10T02:12:04.010Z,10.50
2019-03-10T02:14:32.543Z,10.60
2019-03-10T02:17:01.091Z,10.60
2019-03-10T02:19:29.622Z,10.60
2019-03-10T02:21:58.158Z,10.70
2019-03-10T02:24:26.625Z,10.70
2019-03-10T02:26:55.162Z,10.70
2019-03-10T02:29:23.694Z,10.70
2019-03-10T02:31:52.249Z,10.70
2019-03-10T02:34:20.859Z,10.70
2019-03-10T02:36:49.386Z,10.70
2019-03-10T02:39:17.923Z,10.70
2019-03-10T02:41:46.491Z,10.70
2019-03-10T02:44:15.096Z,10.70
2019-03-10T02:46:43.627Z,10.70
2019-03-10T02:49:12.179Z,10.70
2019-03-10T02:51:40.714Z,10.70
2019-03-10T02:54:09.244Z,10.70
2019-03-10T02:56:37.929Z,10.70
2019-03-10T02:59:06.543Z,10.70
2019-03-10T03:01:35.062Z,10.70
2019-03-10T03:04:03.609Z,10.70
2019-03-10T03:06:32.136Z,10.60
2019-03-10T03:09:00.749Z,10.60
2019-03-10T03:11:29.290Z,10.60
2019-03-10T03:13:57.937Z,10.50
2019-03-10T03:16:26.544Z,10.30
2019-03-10T03:18:55.079Z,10.00
2019-03-10T03:21:23.643Z,9.90
2019-03-10T03:23:52.147Z,9.70
2019-03-10T03:26:20.688Z,9.60
2019-03-10T03:28:49.217Z,9.60
2019-03-10T03:31:17.763Z,9.50
2019-03-10T03:33:46.362Z,9.50
2019-03-10T03:36:17.989Z,9.40
2019-03-10T03:38:52.452Z,9.40
2019-03-10T03:41:25.363Z,9.30
2019-03-10T03:43:53.904Z,9.30
2019-03-10T03:46:22.437Z,9.30
2019-03-10T03:48:50.974Z,9.20
2019-03-10T03:51:19.509Z,9.10
2019-03-10T03:53:48.100Z,9.20
2019-03-10T03:56:16.687Z,9.20
2019-03-10T03:58:45.342Z,9.20
2019-03-10T04:01:15.543Z,9.20
2019-03-10T04:03:44.079Z,9.20
2019-03-10T04:06:12.603Z,9.20
2019-03-10T04:08:41.152Z,9.30
2019-03-10T04:11:09.755Z,9.40
2019-03-10T04:13:38.352Z,9.40
2019-03-10T04:16:06.991Z,9.30
2019-03-10T04:18:35.499Z,9.20
2019-03-10T04:21:04.090Z,9.20
2019-03-10T04:23:33.124Z,9.20
2019-03-10T04:26:01.621Z,9.20
2019-03-10T04:28:30.239Z,9.20
2019-03-10T04:30:58.759Z,9.20
2019-03-10T04:33:27.211Z,9.20
2019-03-10T04:35:55.826Z,9.20
2019-03-10T04:38:24.351Z,9.20
2019-03-10T04:40:52.961Z,9.20
2019-03-10T04:43:21.483Z,9.10
2019-03-10T04:45:49.929Z,9.10
2019-03-10T04:48:18.472Z,8.90
2019-03-10T04:50:46.998Z,8.80
2019-03-10T04:53:15.539Z,8.80
2019-03-10T04:55:48.327Z,8.90
2019-03-10T04:58:17.344Z,8.90
2019-03-10T05:00:47.571Z,8.90
2019-03-10T05:03:16.119Z,8.80
2019-03-10T05:05:44.639Z,8.70
2019-03-10T05:08:13.095Z,8.60
2019-03-10T05:10:41.703Z,8.60
2019-03-10T05:13:10.298Z,8.60
2019-03-10T05:15:38.766Z,8.60
2019-03-10T05:18:07.292Z,8.70
2019-03-10T05:20:35.946Z,8.70
2019-03-10T05:23:32.885Z,8.70
2019-03-10T05:26:01.475Z,8.60
2019-03-10T05:28:32.045Z,8.70
2019-03-10T05:31:00.659Z,8.70
2019-03-10T05:33:29.252Z,8.60
2019-03-10T05:35:57.986Z,8.50
2019-03-10T05:38:26.439Z,8.50
2019-03-10T05:40:54.895Z,8.40
2019-03-10T05:43:23.457Z,8.30
2019-03-10T05:45:51.989Z,8.20
2019-03-10T05:48:20.531Z,8.10
2019-03-10T05:50:49.051Z,7.90
2019-03-10T05:53:17.668Z,7.70
2019-03-10T05:55:46.202Z,7.70
2019-03-10T05:58:14.810Z,7.70
2019-03-10T06:00:43.534Z,7.60
2019-03-10T06:03:12.096Z,7.40
2019-03-10T06:05:40.691Z,7.40
2019-03-10T06:08:09.165Z,7.40
2019-03-10T06:10:37.692Z,7.40
2019-03-10T06:13:06.310Z,7.30
2019-03-10T06:15:34.903Z,7.30
2019-03-10T06:18:13.151Z,7.50
2019-03-10T06:20:33.699Z,7.60
2019-03-10T06:23:02.249Z,7.70
2019-03-10T06:25:30.774Z,7.70
2019-03-10T06:27:59.317Z,7.80
2019-03-10T06:30:27.835Z,7.70
2019-03-10T06:32:56.378Z,7.60
2019-03-10T06:35:24.831Z,7.70
2019-03-10T06:37:53.379Z,7.70
2019-03-10T06:40:31.564Z,7.80
2019-03-10T06:42:52.228Z,7.80
2019-03-10T06:45:20.769Z,7.80
2019-03-10T06:47:49.294Z,7.90
2019-03-10T06:50:17.899Z,8.00
2019-03-10T06:52:46.496Z,8.10
2019-03-10T06:55:15.042Z,8.10
2019-03-10T06:57:43.566Z,8.10
2019-03-10T07:00:14.015Z,8.10
2019-03-10T07:02:42.613Z,8.10
2019-03-10T07:05:12.391Z,8.00
2019-03-10T07:07:40.982Z,7.90
2019-03-10T07:10:11.889Z,7.90
2019-03-10T07:12:40.378Z,8.00
2019-03-10T07:15:10.983Z,8.00
2019-03-10T07:17:39.579Z,8.00
2019-03-10T07:20:14.523Z,8.00
2019-03-10T07:22:42.985Z,8.10
2019-03-10T07:25:11.633Z,8.30
2019-03-10T07:27:41.818Z,8.50
2019-03-10T07:30:12.139Z,8.60
2019-03-10T07:32:42.246Z,8.80
2019-03-10T07:35:21.651Z,8.80
2019-03-10T07:37:54.365Z,8.80
2019-03-10T07:40:30.534Z,8.80
2019-03-10T07:43:00.651Z,8.80
2019-03-10T07:45:30.818Z,8.90
2019-03-10T07:48:18.074Z,8.90
2019-03-10T07:50:51.019Z,9.00
2019-03-10T07:53:23.850Z,9.10
2019-03-10T07:56:11.505Z,9.20
2019-03-10T07:58:44.814Z,9.30
2019-03-10T08:01:17.698Z,9.30
2019-03-10T08:03:50.521Z,9.40
2019-03-10T08:06:38.834Z,9.40
2019-03-10T08:09:24.595Z,9.50
2019-03-10T08:12:13.004Z,9.60
2019-03-10T08:14:49.214Z,9.60
2019-03-10T08:17:19.383Z,9.70
2019-03-10T08:20:06.008Z,9.80
2019-03-10T08:22:48.164Z,9.90
2019-03-10T08:25:33.668Z,10.00
2019-03-10T08:28:20.563Z,10.10
2019-03-10T08:31:06.906Z,10.10
2019-03-10T08:33:37.087Z,10.20
2019-03-10T08:36:07.277Z,10.30
2019-03-10T08:38:39.944Z,10.40
2019-03-10T08:41:26.783Z,10.40
2019-03-10T08:44:08.699Z,10.50
2019-03-10T08:46:41.763Z,10.50
2019-03-10T08:49:11.948Z,10.60
2019-03-10T08:51:42.186Z,10.70
2019-03-10T08:54:18.444Z,10.70
2019-03-10T08:57:05.087Z,10.90
2019-03-10T08:59:41.068Z,11.10
2019-03-10T09:02:13.759Z,11.30
2019-03-10T09:04:55.746Z,11.50
2019-03-10T09:07:25.925Z,11.70
2019-03-10T09:09:58.805Z,11.80
2019-03-10T09:12:45.530Z,11.90
2019-03-10T09:15:15.791Z,11.90
2019-03-10T09:18:01.921Z,12.00
2019-03-10T09:20:37.983Z,12.00
2019-03-10T09:23:26.331Z,12.00
2019-03-10T09:25:56.432Z,12.00
2019-03-10T09:28:44.903Z,12.00
2019-03-10T09:31:20.833Z,12.00
2019-03-10T09:34:02.828Z,12.00
2019-03-10T09:36:44.723Z,12.00
2019-03-10T09:39:14.919Z,12.00
2019-03-10T09:41:45.095Z,11.90
2019-03-10T09:44:30.373Z,11.80
2019-03-10T09:47:18.374Z,11.80
2019-03-10T09:49:51.299Z,11.70
2019-03-10T09:52:37.711Z,11.70
2019-03-10T09:55:11.187Z,11.60
2019-03-10T09:57:50.034Z,11.50
2019-03-10T10:00:20.226Z,11.50
2019-03-10T10:02:59.594Z,11.40
2019-03-10T10:05:46.016Z,11.40
2019-03-10T10:08:25.202Z,11.30
2019-03-10T10:11:10.476Z,11.30
2019-03-10T10:13:52.440Z,11.30
2019-03-10T10:16:22.785Z,11.30
2019-03-10T10:18:58.755Z,11.20
2019-03-10T10:21:34.751Z,11.10
2019-03-10T10:24:11.003Z,11.10
2019-03-10T10:26:41.193Z,11.10
2019-03-10T10:29:23.155Z,11.10
2019-03-10T10:32:09.328Z,11.00
2019-03-10T10:34:39.499Z,11.00
2019-03-10T10:37:12.454Z,11.00
2019-03-10T10:39:42.637Z,11.00
2019-03-10T10:42:12.906Z,11.00
2019-03-10T10:44:43.087Z,11.00
2019-03-10T10:47:16.248Z,11.00
2019-03-10T10:50:02.876Z,11.00
2019-03-10T10:52:38.826Z,10.90
2019-03-10T10:55:26.602Z,10.90
2019-03-10T10:58:13.003Z,10.90
2019-03-10T11:00:43.194Z,10.90
2019-03-10T11:03:25.476Z,10.80
2019-03-10T11:06:10.653Z,10.80
2019-03-10T11:08:56.984Z,10.80
2019-03-10T11:11:30.042Z,10.80
2019-03-10T11:14:06.383Z,10.80
2019-03-10T11:16:36.535Z,10.80
2019-03-10T11:19:06.755Z,10.80
2019-03-10T11:21:43.130Z,10.80
2019-03-10T11:24:19.219Z,10.90
2019-03-10T11:26:52.581Z,10.90
2019-03-10T11:29:34.986Z,10.90
2019-03-10T11:32:14.108Z,10.90
2019-03-10T11:34:59.653Z,10.90
2019-03-10T11:37:32.884Z,10.90
2019-03-10T11:40:08.840Z,11.00
2019-03-10T11:42:45.283Z,11.00
2019-03-10T11:45:31.680Z,11.00
2019-03-10T11:48:17.222Z,11.10
2019-03-10T11:50:47.406Z,11.20
2019-03-10T11:53:29.885Z,11.40
2019-03-10T11:56:00.055Z,11.50
2019-03-10T11:58:30.239Z,11.60
2019-03-10T12:01:00.410Z,11.80
2019-03-10T12:03:36.747Z,12.00
2019-03-10T12:06:07.059Z,12.20
2019-03-10T12:08:52.502Z,12.30
2019-03-10T12:11:21.019Z,12.50
2019-03-10T12:13:49.568Z,12.60
2019-03-10T12:16:18.088Z,12.70
2019-03-10T12:18:46.637Z,12.70
2019-03-10T12:21:15.163Z,12.80
2019-03-10T12:23:43.713Z,12.80
2019-03-10T12:26:12.375Z,12.90
2019-03-10T12:28:41.740Z,13.10
2019-03-10T12:31:10.363Z,13.30
2019-03-10T12:33:38.971Z,13.50
2019-03-10T12:36:07.502Z,13.50
2019-03-10T12:38:36.043Z,13.50
2019-03-10T12:41:04.641Z,13.50
2019-03-10T12:43:33.174Z,13.50
2019-03-10T12:46:01.703Z,13.40
2019-03-10T12:48:30.244Z,13.30
2019-03-10T12:50:58.834Z,13.30
2019-03-10T12:53:27.384Z,13.30
2019-03-10T12:55:55.914Z,13.40
2019-03-10T12:58:25.123Z,13.40
2019-03-10T13:00:53.710Z,13.50
2019-03-10T13:03:22.231Z,13.70
2019-03-10T13:05:50.757Z,13.80
2019-03-10T13:08:19.299Z,13.90
2019-03-10T13:10:47.827Z,14.10
2019-03-10T13:13:16.375Z,14.20
2019-03-10T13:15:44.903Z,14.20
2019-03-10T13:18:13.454Z,14.30
2019-03-10T13:20:42.046Z,14.30
2019-03-10T13:23:10.591Z,14.30
2019-03-10T13:25:39.118Z,14.30
2019-03-10T13:28:07.735Z,14.30
2019-03-10T13:30:36.255Z,14.50
2019-03-10T13:33:04.867Z,14.50
2019-03-10T13:35:33.395Z,14.50
2019-03-10T13:38:01.938Z,14.50
2019-03-10T13:40:30.399Z,14.50
2019-03-10T13:42:58.960Z,14.40
2019-03-10T13:45:27.552Z,14.30
2019-03-10T13:47:56.079Z,14.20
2019-03-10T13:50:24.628Z,14.20
2019-03-10T13:52:53.149Z,14.30
2019-03-10T13:55:21.696Z,14.20
2019-03-10T13:57:50.219Z,14.30
2019-03-10T14:00:27.371Z,14.40
2019-03-10T14:02:55.963Z,14.50
2019-03-10T14:05:24.591Z,14.60
2019-03-10T14:07:53.178Z,14.60
2019-03-10T14:10:21.781Z,14.70
2019-03-10T14:12:50.309Z,14.70
2019-03-10T14:15:18.991Z,14.70
2019-03-10T14:17:47.513Z,14.70
2019-03-10T14:20:17.036Z,14.60
2019-03-10T14:22:45.522Z,14.60
2019-03-10T14:25:17.128Z,14.60
2019-03-10T14:27:45.671Z,14.60
2019-03-10T14:30:18.699Z,14.60
2019-03-10T14:32:47.305Z,14.60
2019-03-10T14:35:16.281Z,14.60
2019-03-10T14:37:44.882Z,14.60
2019-03-10T14:40:16.490Z,14.70
2019-03-10T14:42:45.036Z,14.70
2019-03-10T14:45:17.869Z,14.70
2019-03-10T14:47:46.652Z,14.80
2019-03-10T14:50:17.519Z,14.70
2019-03-10T14:52:46.139Z,14.70
2019-03-10T14:55:19.886Z,14.70
2019-03-10T14:57:48.500Z,14.80
2019-03-10T15:00:27.459Z,14.80
2019-03-10T15:02:56.342Z,14.80
2019-03-10T15:05:25.009Z,14.80
2019-03-10T15:07:53.623Z,14.80
2019-03-10T15:10:22.285Z,14.80
2019-03-10T15:12:50.835Z,14.80
2019-03-10T15:15:22.617Z,14.80
2019-03-10T15:17:50.523Z,14.70
2019-03-10T15:20:21.456Z,14.60
2019-03-10T15:22:49.403Z,14.50
2019-03-10T15:25:24.800Z,14.40
2019-03-10T15:27:52.530Z,14.30
2019-03-10T15:30:23.339Z,14.20
2019-03-10T15:32:51.876Z,14.10
2019-03-10T15:35:20.399Z,13.80
2019-03-10T15:37:48.947Z,13.50
2019-03-10T15:40:18.716Z,13.20
2019-03-10T15:42:47.404Z,13.00
2019-03-10T15:45:17.076Z,12.90
2019-03-10T15:47:45.673Z,12.90
2019-03-10T15:50:27.942Z,12.90
2019-03-10T15:52:56.472Z,12.90
2019-03-10T15:55:25.015Z,12.70
2019-03-10T15:57:53.545Z,12.70
2019-03-10T16:00:24.300Z,12.60
2019-03-10T16:02:52.955Z,12.60
2019-03-10T16:05:21.582Z,12.50
2019-03-10T16:07:50.198Z,12.40
2019-03-10T16:10:18.735Z,12.30
2019-03-10T16:12:49.409Z,12.30
2019-03-10T16:15:22.626Z,12.20
2019-03-10T16:17:51.231Z,12.10
2019-03-10T16:20:19.853Z,12.00
2019-03-10T16:22:48.447Z,11.90
2019-03-10T16:25:18.225Z,11.80
2019-03-10T16:27:46.758Z,11.80
2019-03-10T16:30:23.735Z,11.80
2019-03-10T16:32:52.274Z,11.90
2019-03-10T16:35:22.311Z,11.80
2019-03-10T16:37:51.326Z,11.80
2019-03-10T16:40:20.614Z,11.70
2019-03-10T16:42:49.239Z,11.60
2019-03-10T16:45:25.807Z,11.60
2019-03-10T16:47:54.401Z,11.50
2019-03-10T16:50:27.750Z,11.40
2019-03-10T16:52:56.348Z,11.40
2019-03-10T16:55:24.874Z,11.40
2019-03-10T16:57:53.424Z,11.40
2019-03-10T17:00:21.951Z,11.30
2019-03-10T17:02:51.648Z,11.20
2019-03-10T17:05:21.008Z,11.20
2019-03-10T17:07:49.935Z,11.10
2019-03-10T17:10:22.735Z,11.10
2019-03-10T17:12:51.279Z,11.00
2019-03-10T17:15:23.735Z,11.00
2019-03-10T17:17:52.571Z,11.10
2019-03-10T17:20:21.163Z,11.10
2019-03-10T17:22:49.931Z,11.00
2019-03-10T17:25:18.633Z,11.00
2019-03-10T17:27:47.157Z,11.00
2019-03-10T17:30:19.858Z,10.90
2019-03-10T17:32:48.625Z,10.90
2019-03-10T17:35:17.915Z,10.80
2019-03-10T17:37:48.550Z,10.80
2019-03-10T17:40:19.479Z,10.80
2019-03-10T17:42:48.086Z,10.70
2019-03-10T17:45:19.711Z,10.60
2019-03-10T17:47:48.318Z,10.60
2019-03-10T17:50:17.807Z,10.60
2019-03-10T17:52:46.839Z,10.60
2019-03-10T17:55:16.954Z,10.70
2019-03-10T17:57:45.626Z,10.60
2019-03-10T18:00:28.607Z,10.70
2019-03-10T18:02:57.203Z,10.60
2019-03-10T18:05:25.753Z,10.60
2019-03-10T18:07:54.287Z,10.60
2019-03-10T18:10:22.908Z,10.50
2019-03-10T18:12:51.498Z,10.50
2019-03-10T18:15:20.051Z,10.50
2019-03-10T18:17:48.586Z,10.50
2019-03-10T18:20:21.971Z,10.50
2019-03-10T18:22:50.507Z,10.40
2019-03-10T18:25:19.124Z,10.40
2019-03-10T18:27:49.530Z,10.40
2019-03-10T18:30:22.949Z,10.50
2019-03-10T18:32:51.547Z,10.50
2019-03-10T18:35:20.234Z,10.40
2019-03-10T18:37:48.837Z,10.20
2019-03-10T18:40:23.978Z,10.10
2019-03-10T18:42:52.507Z,10.00
2019-03-10T18:45:21.389Z,10.00
2019-03-10T18:47:50.067Z,10.10
2019-03-10T18:50:23.724Z,10.10
2019-03-10T18:52:52.251Z,10.10
2019-03-10T18:55:21.450Z,10.10
2019-03-10T18:57:50.047Z,10.10
2019-03-10T19:00:23.502Z,10.00
2019-03-10T19:02:52.175Z,10.00
2019-03-10T19:05:20.864Z,10.00
2019-03-10T19:07:49.393Z,10.00
2019-03-10T19:10:18.083Z,10.00
2019-03-10T19:12:46.740Z,10.00
2019-03-10T19:15:19.889Z,10.00
2019-03-10T19:17:48.484Z,9.90
2019-03-10T19:20:17.172Z,9.80
2019-03-10T19:22:45.842Z,9.70
2019-03-10T19:25:16.289Z,9.70
2019-03-10T19:27:45.261Z,9.70
2019-03-10T19:30:23.259Z,9.60
2019-03-10T19:32:51.922Z,9.50
2019-03-10T19:35:20.539Z,9.50
2019-03-10T19:37:49.070Z,9.30
2019-03-10T19:40:20.687Z,9.20
2019-03-10T19:42:49.208Z,9.20
2019-03-10T19:45:18.988Z,9.20
2019-03-10T19:47:47.580Z,9.20
2019-03-10T19:50:27.822Z,9.20
2019-03-10T19:52:56.736Z,9.10
2019-03-10T19:55:25.424Z,9.10
2019-03-10T19:57:54.002Z,9.10
2019-03-10T20:00:23.184Z,9.20
2019-03-10T20:02:51.805Z,9.30
2019-03-10T20:05:20.422Z,9.20
2019-03-10T20:07:48.947Z,9.20
2019-03-10T20:10:21.751Z,9.20
2019-03-10T20:12:50.276Z,9.20
2019-03-10T20:15:22.554Z,9.20
2019-03-10T20:17:51.220Z,9.20
2019-03-10T20:20:33.841Z,9.20
2019-03-10T20:23:02.372Z,9.20
2019-03-10T20:25:31.057Z,9.10
2019-03-10T20:28:00.469Z,9.10
2019-03-10T20:30:29.088Z,9.10
2019-03-10T20:32:57.620Z,9.10
2019-03-10T20:35:26.169Z,9.10
2019-03-10T20:37:54.694Z,9.00
2019-03-10T20:40:27.385Z,9.00
2019-03-10T20:42:55.888Z,9.00
2019-03-10T20:45:24.933Z,8.90
2019-03-10T20:47:56.344Z,9.00
2019-03-10T20:50:23.830Z,9.10
2019-03-10T20:52:52.347Z,9.10
2019-03-10T20:55:21.015Z,9.00
2019-03-10T20:57:49.635Z,9.00
2019-03-10T21:00:25.142Z,9.10
2019-03-10T21:02:53.760Z,9.10
2019-03-10T21:05:22.458Z,9.00
2019-03-10T21:07:51.003Z,9.00
2019-03-10T21:10:23.491Z,8.80
2019-03-10T21:12:52.141Z,8.70
2019-03-10T21:15:21.883Z,8.70
2019-03-10T21:17:50.428Z,8.80
2019-03-10T21:20:22.982Z,8.70
2019-03-10T21:22:51.594Z,8.60
2019-03-10T21:25:25.340Z,8.60
2019-03-10T21:27:53.952Z,8.50
2019-03-10T21:30:24.115Z,8.60
2019-03-10T21:32:52.654Z,8.60
2019-03-10T21:35:21.243Z,8.50
2019-03-10T21:37:49.770Z,8.50
2019-03-10T21:40:32.370Z,8.50
2019-03-10T21:43:00.916Z,8.50
2019-03-10T21:45:29.908Z,8.50
2019-03-10T21:47:58.446Z,8.50
2019-03-10T21:50:26.973Z,8.40
2019-03-10T21:52:55.511Z,8.40
2019-03-10T21:55:24.033Z,8.30
2019-03-10T21:57:52.579Z,8.20
2019-03-10T22:00:21.172Z,8.20
2019-03-10T22:02:49.788Z,8.20
2019-03-10T22:05:18.475Z,8.20
2019-03-10T22:07:47.075Z,8.20
2019-03-10T22:10:26.105Z,8.20
2019-03-10T22:12:47.109Z,8.20
2019-03-10T22:15:16.567Z,8.20
2019-03-10T22:17:45.182Z,8.20
2019-03-10T22:20:18.538Z,8.10
2019-03-10T22:23:06.417Z,8.20
2019-03-10T22:25:34.938Z,8.20
2019-03-10T22:28:03.479Z,8.20
2019-03-10T22:30:32.074Z,8.20
2019-03-10T22:33:00.626Z,8.10
2019-03-10T22:35:29.075Z,8.10
2019-03-10T22:37:57.623Z,8.10
2019-03-10T22:40:26.215Z,8.10
2019-03-10T22:42:54.759Z,8.20
2019-03-10T22:45:23.286Z,8.20
2019-03-10T22:47:51.803Z,8.10
2019-03-10T22:50:20.355Z,8.00
2019-03-10T22:52:48.876Z,7.90
2019-03-10T22:55:17.498Z,7.90
2019-03-10T22:57:46.102Z,7.80
2019-03-10T23:00:24.849Z,7.90
2019-03-10T23:02:53.365Z,7.80
2019-03-10T23:05:21.910Z,7.70
2019-03-10T23:07:50.443Z,7.70
2019-03-10T23:10:19.554Z,7.60
2019-03-10T23:12:48.011Z,7.60
2019-03-10T23:15:16.622Z,7.50
2019-03-10T23:17:45.152Z,7.50
2019-03-10T23:20:15.249Z,7.60
2019-03-10T23:22:43.843Z,7.50
2019-03-10T23:25:12.759Z,7.50
2019-03-10T23:27:41.523Z,7.40
2019-03-10T23:30:19.683Z,7.40
2019-03-10T23:32:48.207Z,7.30
2019-03-10T23:35:16.750Z,7.20
2019-03-10T23:37:45.211Z,7.20
2019-03-10T23:40:15.686Z,7.10
2019-03-10T23:42:44.202Z,6.90
2019-03-10T23:45:17.541Z,7.00
2019-03-10T23:47:46.129Z,7.00
2019-03-10T23:50:20.779Z,7.00
2019-03-10T23:52:49.320Z,6.90
2019-03-10T23:55:17.858Z,6.90
2019-03-10T23:57:47.023Z,6.80
